Time;durP1;ratioP1;P1;durP2;ratioP2;P2;SDS_P1;SDS_P2;PMS_P1;PMS_P2;Temp;Humidity;BMP_temperature;BMP_pressure;BME280_temperature;BME280_humidity;BME280_pressure;Samples;Min_cycle;Max_cycle;Signal;HPM_P1;HPM_P2
2022/12/09 00:01:14;;;;;;;7.23;4.13;;;;;;;;;;5051061;28;20441;-53
2022/12/09 00:03:40;;;;;;;4.60;3.67;;;;;;;;;;5015577;28;20457;-54
2022/12/09 00:06:07;;;;;;;5.80;4.60;;;;;;;;;;5058416;28;20433;-54
2022/12/09 00:08:33;;;;;;;5.97;3.90;;;;;;;;;;5023800;28;20449;-54
2022/12/09 00:10:59;;;;;;;5.37;3.03;;;;;;;;;;5050454;28;20782;-54
2022/12/09 00:13:25;;;;;;;5.40;4.00;;;;;;;;;;5026951;28;20450;-54
2022/12/09 00:15:51;;;;;;;7.37;4.10;;;;;;;;;;5054964;28;20570;-53
2022/12/09 00:18:17;;;;;;;7.47;4.80;;;;;;;;;;5031838;28;20477;-54
2022/12/09 00:20:43;;;;;;;5.60;3.80;;;;;;;;;;5056972;28;20475;-54
2022/12/09 00:23:09;;;;;;;6.57;4.80;;;;;;;;;;5026574;28;20554;-54
2022/12/09 00:25:35;;;;;;;4.23;3.77;;;;;;;;;;5053548;28;20441;-54
2022/12/09 00:28:01;;;;;;;6.83;3.67;;;;;;;;;;5047327;28;20725;-54
2022/12/09 00:30:27;;;;;;;7.03;4.93;;;;;;;;;;5054902;28;20436;-52
2022/12/09 00:32:53;;;;;;;9.33;4.70;;;;;;;;;;5059080;28;20469;-53
2022/12/09 00:35:19;;;;;;;8.00;3.63;;;;;;;;;;5003364;28;20452;-55
2022/12/09 00:37:45;;;;;;;6.57;4.20;;;;;;;;;;5054448;28;20480;-54
2022/12/09 00:40:11;;;;;;;7.63;4.90;;;;;;;;;;5052180;28;20487;-59
2022/12/09 00:42:37;;;;;;;5.70;4.30;;;;;;;;;;5053181;28;20444;-53
2022/12/09 00:45:03;;;;;;;6.60;4.33;;;;;;;;;;5031572;28;20441;-54
2022/12/09 00:47:29;;;;;;;7.13;3.23;;;;;;;;;;5060986;28;21103;-56
2022/12/09 00:49:55;;;;;;;5.07;3.80;;;;;;;;;;5056186;28;20444;-55
2022/12/09 00:52:21;;;;;;;7.93;4.13;;;;;;;;;;5030100;28;20442;-55
2022/12/09 00:54:47;;;;;;;4.20;3.80;;;;;;;;;;5048318;28;20425;-54
2022/12/09 00:57:13;;;;;;;8.40;5.17;;;;;;;;;;5023527;28;20433;-55
2022/12/09 00:59:39;;;;;;;7.30;5.30;;;;;;;;;;5054932;28;20445;-55
2022/12/09 01:02:05;;;;;;;5.17;4.60;;;;;;;;;;5050932;28;20986;-54
2022/12/09 01:04:31;;;;;;;8.83;5.20;;;;;;;;;;5062041;28;20894;-54
2022/12/09 01:06:57;;;;;;;6.47;3.87;;;;;;;;;;5010172;28;20437;-54
2022/12/09 01:09:23;;;;;;;6.33;4.03;;;;;;;;;;5055796;28;20984;-55
2022/12/09 01:11:49;;;;;;;7.30;4.03;;;;;;;;;;5022687;28;20506;-54
2022/12/09 01:14:15;;;;;;;6.43;4.70;;;;;;;;;;5062975;28;20440;-54
2022/12/09 01:16:40;;;;;;;6.30;4.80;;;;;;;;;;5036546;28;20788;-54
2022/12/09 01:19:07;;;;;;;5.50;4.07;;;;;;;;;;5054787;28;20473;-54
2022/12/09 01:21:33;;;;;;;5.80;4.27;;;;;;;;;;5052432;28;20437;-54
2022/12/09 01:23:59;;;;;;;7.10;4.80;;;;;;;;;;5049191;28;20442;-54
2022/12/09 01:26:25;;;;;;;10.50;6.10;;;;;;;;;;5018540;28;20461;-55
2022/12/09 01:28:53;;;;;;;7.83;5.73;;;;;;;;;;5059570;28;20444;-54
2022/12/09 01:31:20;;;;;;;5.20;3.73;;;;;;;;;;5024943;28;20453;-55
2022/12/09 01:33:46;;;;;;;20.33;5.47;;;;;;;;;;5047652;28;20433;-56
2022/12/09 01:36:19;;;;;;;4.90;4.00;;;;;;;;;;5033654;28;20441;-55
2022/12/09 01:38:45;;;;;;;7.03;4.30;;;;;;;;;;5055986;28;20494;-55
2022/12/09 01:41:11;;;;;;;4.00;3.43;;;;;;;;;;5012143;28;20551;-53
2022/12/09 01:43:38;;;;;;;6.40;4.13;;;;;;;;;;5060897;28;20545;-53
2022/12/09 01:46:04;;;;;;;4.77;3.97;;;;;;;;;;5015058;28;20468;-54
2022/12/09 01:48:31;;;;;;;4.90;3.60;;;;;;;;;;5052273;28;20434;-52
2022/12/09 01:51:00;;;;;;;7.30;5.17;;;;;;;;;;5025125;28;20597;-53
2022/12/09 01:53:27;;;;;;;6.30;4.60;;;;;;;;;;5052675;28;22955;-55
2022/12/09 01:55:54;;;;;;;9.00;5.80;;;;;;;;;;5046712;28;20580;-56
2022/12/09 01:58:20;;;;;;;13.60;8.43;;;;;;;;;;5057835;28;20481;-55
2022/12/09 02:00:46;;;;;;;13.20;7.70;;;;;;;;;;5048938;28;20584;-54
2022/12/09 02:03:12;;;;;;;10.87;5.90;;;;;;;;;;5047100;28;20452;-56
2022/12/09 02:05:38;;;;;;;13.93;6.00;;;;;;;;;;5033862;28;20449;-55
2022/12/09 02:08:06;;;;;;;7.00;5.67;;;;;;;;;;5035769;28;20422;-55
2022/12/09 02:10:32;;;;;;;7.73;4.80;;;;;;;;;;5026446;28;21325;-53
2022/12/09 02:13:20;;;;;;;5.33;4.63;;;;;;;;;;5043273;28;20429;-55
2022/12/09 02:15:47;;;;;;;5.70;3.57;;;;;;;;;;5057042;28;20434;-56
2022/12/09 02:18:31;;;;;;;3.83;3.50;;;;;;;;;;5043477;28;20685;-53
2022/12/09 02:21:01;;;;;;;5.70;3.07;;;;;;;;;;5050778;28;20469;-55
2022/12/09 02:23:28;;;;;;;9.93;4.17;;;;;;;;;;5050588;28;20521;-55
2022/12/09 02:25:56;;;;;;;9.63;4.83;;;;;;;;;;5026912;28;20537;-55
2022/12/09 02:28:31;;;;;;;6.40;4.30;;;;;;;;;;5071028;28;20434;-56
2022/12/09 02:30:57;;;;;;;4.67;4.20;;;;;;;;;;5052709;28;20524;-55
2022/12/09 02:33:23;;;;;;;6.17;4.80;;;;;;;;;;5056401;28;20509;-56
2022/12/09 02:35:56;;;;;;;6.13;5.13;;;;;;;;;;5048300;28;20465;-56
2022/12/09 02:38:22;;;;;;;6.50;4.20;;;;;;;;;;5005443;28;20945;-56
2022/12/09 02:40:51;;;;;;;7.20;4.27;;;;;;;;;;5052265;28;20457;-56
2022/12/09 02:43:18;;;;;;;5.70;5.13;;;;;;;;;;5012914;28;20444;-56
2022/12/09 02:45:44;;;;;;;5.30;3.90;;;;;;;;;;5066600;28;20426;-56
2022/12/09 02:48:11;;;;;;;4.53;4.07;;;;;;;;;;5046740;28;20435;-54
2022/12/09 02:50:37;;;;;;;9.53;4.57;;;;;;;;;;5057161;28;20433;-56
2022/12/09 02:53:05;;;;;;;5.10;3.80;;;;;;;;;;5054996;28;21032;-56
2022/12/09 02:55:31;;;;;;;4.80;4.30;;;;;;;;;;5056695;28;20458;-55
2022/12/09 02:57:57;;;;;;;5.13;4.40;;;;;;;;;;5026444;28;20560;-55
2022/12/09 03:00:23;;;;;;;9.90;3.57;;;;;;;;;;5048829;28;20437;-56
2022/12/09 03:02:50;;;;;;;5.77;4.13;;;;;;;;;;5030478;28;20963;-55
2022/12/09 03:05:16;;;;;;;3.00;2.20;;;;;;;;;;5058790;28;22310;-55
2022/12/09 03:07:45;;;;;;;2.60;2.30;;;;;;;;;;5023671;28;20443;-57
2022/12/09 03:10:14;;;;;;;5.37;4.50;;;;;;;;;;5053687;28;20437;-55
2022/12/09 03:12:40;;;;;;;4.60;3.50;;;;;;;;;;5050901;28;20843;-54
2022/12/09 03:15:06;;;;;;;3.30;3.00;;;;;;;;;;5056678;28;20433;-56
2022/12/09 03:17:36;;;;;;;3.93;2.70;;;;;;;;;;5023459;28;20613;-55
2022/12/09 03:20:06;;;;;;;4.30;3.30;;;;;;;;;;5037770;28;20456;-54
2022/12/09 03:22:32;;;;;;;3.47;3.17;;;;;;;;;;5061089;28;22771;-56
2022/12/09 03:25:17;;;;;;;5.40;4.00;;;;;;;;;;5053851;28;20443;-56
2022/12/09 03:27:48;;;;;;;3.80;3.40;;;;;;;;;;5032750;28;20717;-55
2022/12/09 03:30:14;;;;;;;6.43;3.10;;;;;;;;;;5046811;28;21277;-56
2022/12/09 03:32:40;;;;;;;5.50;3.70;;;;;;;;;;5045834;28;20441;-55
2022/12/09 03:35:10;;;;;;;4.33;3.83;;;;;;;;;;5049484;28;20441;-55
2022/12/09 03:37:37;;;;;;;5.90;4.13;;;;;;;;;;5044484;28;21577;-55
2022/12/09 03:40:03;;;;;;;5.83;3.50;;;;;;;;;;5035660;28;20480;-55
2022/12/09 03:42:36;;;;;;;5.80;4.33;;;;;;;;;;5044126;28;20429;-56
2022/12/09 03:45:03;;;;;;;5.33;3.17;;;;;;;;;;5044116;28;20552;-56
2022/12/09 03:47:29;;;;;;;4.27;2.30;;;;;;;;;;5056595;28;20460;-55
2022/12/09 03:49:55;;;;;;;3.40;2.80;;;;;;;;;;5029323;28;20965;-56
2022/12/09 03:52:42;;;;;;;5.77;4.17;;;;;;;;;;5026440;28;21581;-56
2022/12/09 03:55:10;;;;;;;3.53;2.73;;;;;;;;;;5046167;28;20457;-54
2022/12/09 03:57:37;;;;;;;6.10;3.80;;;;;;;;;;5035582;28;20905;-54
2022/12/09 04:00:03;;;;;;;9.30;3.83;;;;;;;;;;5039835;28;20464;-55
2022/12/09 04:02:29;;;;;;;5.90;3.90;;;;;;;;;;5037407;28;20516;-55
2022/12/09 04:04:55;;;;;;;7.10;3.40;;;;;;;;;;5041574;28;20449;-54
2022/12/09 04:07:21;;;;;;;4.50;2.67;;;;;;;;;;5048790;28;20445;-55
2022/12/09 04:09:47;;;;;;;7.17;4.87;;;;;;;;;;5043816;28;20438;-54
2022/12/09 04:12:13;;;;;;;5.10;3.47;;;;;;;;;;5043406;28;20480;-60
2022/12/09 04:14:39;;;;;;;6.73;3.50;;;;;;;;;;5031934;28;20438;-55
2022/12/09 04:17:05;;;;;;;4.60;3.43;;;;;;;;;;5055583;28;20432;-57
2022/12/09 04:19:31;;;;;;;6.80;4.63;;;;;;;;;;5033332;28;20473;-54
2022/12/09 04:21:57;;;;;;;7.23;3.40;;;;;;;;;;5051734;28;20888;-59
2022/12/09 04:24:22;;;;;;;9.20;5.23;;;;;;;;;;5011111;28;20502;-58
2022/12/09 04:26:48;;;;;;;4.10;3.07;;;;;;;;;;5049217;28;20440;-55
2022/12/09 04:29:14;;;;;;;8.67;3.80;;;;;;;;;;5044560;28;21754;-55
2022/12/09 04:31:40;;;;;;;6.03;4.90;;;;;;;;;;5043817;28;20538;-55
2022/12/09 04:34:06;;;;;;;6.00;4.23;;;;;;;;;;5022786;28;20453;-54
2022/12/09 04:36:32;;;;;;;10.97;4.70;;;;;;;;;;5048213;28;20434;-56
2022/12/09 04:38:58;;;;;;;8.43;4.13;;;;;;;;;;5029200;28;20485;-57
2022/12/09 04:41:24;;;;;;;5.20;4.70;;;;;;;;;;5051465;28;20449;-55
2022/12/09 04:43:50;;;;;;;9.83;6.07;;;;;;;;;;5025537;28;20993;-53
2022/12/09 04:46:16;;;;;;;5.50;4.80;;;;;;;;;;5043394;28;20441;-53
2022/12/09 04:48:43;;;;;;;6.63;4.87;;;;;;;;;;5028738;28;20451;-55
2022/12/09 04:51:09;;;;;;;6.60;4.73;;;;;;;;;;5051750;28;20440;-55
2022/12/09 04:53:35;;;;;;;11.37;5.30;;;;;;;;;;5041323;28;20448;-55
2022/12/09 04:56:02;;;;;;;5.60;4.00;;;;;;;;;;5056035;28;20442;-54
2022/12/09 04:58:28;;;;;;;6.50;4.53;;;;;;;;;;5013320;28;20532;-54
2022/12/09 05:00:54;;;;;;;6.30;5.70;;;;;;;;;;5047332;28;20836;-55
2022/12/09 05:03:20;;;;;;;6.30;5.53;;;;;;;;;;5050849;28;20446;-53
2022/12/09 05:05:46;;;;;;;6.50;4.80;;;;;;;;;;5047204;28;20831;-55
2022/12/09 05:08:12;;;;;;;5.90;4.20;;;;;;;;;;5017191;28;20430;-54
2022/12/09 05:10:38;;;;;;;7.50;5.03;;;;;;;;;;5046993;28;20426;-55
2022/12/09 05:13:04;;;;;;;7.40;5.30;;;;;;;;;;5058369;28;21010;-56
2022/12/09 05:15:30;;;;;;;6.80;5.00;;;;;;;;;;5055330;28;20455;-56
2022/12/09 05:17:58;;;;;;;6.57;4.67;;;;;;;;;;5029269;28;20468;-56
2022/12/09 05:20:28;;;;;;;4.47;4.00;;;;;;;;;;5067873;28;20425;-56
2022/12/09 05:22:54;;;;;;;9.80;4.87;;;;;;;;;;5050812;28;20437;-55
2022/12/09 05:25:20;;;;;;;9.50;6.70;;;;;;;;;;5056641;28;20437;-57
2022/12/09 05:27:46;;;;;;;6.80;4.70;;;;;;;;;;5010265;28;21287;-56
2022/12/09 05:30:12;;;;;;;13.40;6.07;;;;;;;;;;5054319;28;20572;-55
2022/12/09 05:32:38;;;;;;;5.90;4.67;;;;;;;;;;5059896;28;20473;-55
2022/12/09 05:35:04;;;;;;;5.90;4.47;;;;;;;;;;5058571;28;20457;-55
2022/12/09 05:37:30;;;;;;;4.33;3.93;;;;;;;;;;5050863;28;20495;-53
2022/12/09 05:39:56;;;;;;;10.50;4.60;;;;;;;;;;5058389;28;20501;-55
2022/12/09 05:42:22;;;;;;;10.53;4.57;;;;;;;;;;5047252;28;20431;-53
2022/12/09 05:44:48;;;;;;;8.40;4.67;;;;;;;;;;5041075;28;20466;-55
2022/12/09 05:47:14;;;;;;;7.43;5.30;;;;;;;;;;5045065;28;20785;-55
2022/12/09 05:49:40;;;;;;;7.43;5.13;;;;;;;;;;5010327;28;20433;-56
2022/12/09 05:52:06;;;;;;;8.80;4.90;;;;;;;;;;5024216;28;21081;-55
2022/12/09 05:54:32;;;;;;;6.40;4.57;;;;;;;;;;5049755;28;20437;-53
2022/12/09 05:56:59;;;;;;;7.20;4.43;;;;;;;;;;5041051;28;20438;-55
2022/12/09 05:59:25;;;;;;;7.07;5.33;;;;;;;;;;5048685;28;20929;-54
2022/12/09 06:01:53;;;;;;;9.07;5.30;;;;;;;;;;5007980;28;20434;-56
2022/12/09 06:04:19;;;;;;;5.67;4.23;;;;;;;;;;5039539;28;20441;-55
2022/12/09 06:06:45;;;;;;;6.80;5.30;;;;;;;;;;5024313;28;20474;-56
2022/12/09 06:09:11;;;;;;;7.63;4.97;;;;;;;;;;5043475;28;20437;-54
2022/12/09 06:11:37;;;;;;;6.67;5.37;;;;;;;;;;5024274;28;20433;-55
2022/12/09 06:14:04;;;;;;;10.83;4.80;;;;;;;;;;5047055;28;20443;-55
2022/12/09 06:16:30;;;;;;;7.57;4.23;;;;;;;;;;5024924;28;20464;-55
2022/12/09 06:18:56;;;;;;;6.83;4.40;;;;;;;;;;5056505;28;20973;-57
2022/12/09 06:21:22;;;;;;;7.07;4.57;;;;;;;;;;5028380;28;20445;-55
2022/12/09 06:23:48;;;;;;;6.87;5.87;;;;;;;;;;5058684;28;21038;-55
2022/12/09 06:26:18;;;;;;;6.67;4.77;;;;;;;;;;5044752;28;20491;-56
2022/12/09 06:28:44;;;;;;;4.17;3.57;;;;;;;;;;5045271;28;20445;-58
2022/12/09 06:31:17;;;;;;;7.37;5.20;;;;;;;;;;5030992;28;20450;-55
2022/12/09 06:33:43;;;;;;;5.30;4.53;;;;;;;;;;5061919;28;21004;-57
2022/12/09 06:36:09;;;;;;;6.70;3.83;;;;;;;;;;5061607;28;20518;-54
2022/12/09 06:38:35;;;;;;;7.20;5.57;;;;;;;;;;5034769;28;20478;-55
2022/12/09 06:41:04;;;;;;;7.43;5.07;;;;;;;;;;5047345;28;20457;-55
2022/12/09 06:43:30;;;;;;;6.10;4.77;;;;;;;;;;5058377;28;20430;-56
2022/12/09 06:45:56;;;;;;;7.40;5.77;;;;;;;;;;5058692;28;20433;-61
2022/12/09 06:48:22;;;;;;;5.63;4.70;;;;;;;;;;5028209;28;20445;-58
2022/12/09 06:50:49;;;;;;;7.33;5.70;;;;;;;;;;5051158;28;20427;-57
2022/12/09 06:53:15;;;;;;;8.23;5.93;;;;;;;;;;5019653;28;20552;-57
2022/12/09 06:55:41;;;;;;;8.83;5.47;;;;;;;;;;5052171;28;21334;-58
2022/12/09 06:58:07;;;;;;;7.63;5.50;;;;;;;;;;5030055;28;20979;-56
2022/12/09 07:00:33;;;;;;;15.53;6.93;;;;;;;;;;5061484;28;20461;-56
2022/12/09 07:02:59;;;;;;;7.33;5.30;;;;;;;;;;5002342;28;20706;-56
2022/12/09 07:05:25;;;;;;;6.30;5.33;;;;;;;;;;5052890;28;20433;-56
2022/12/09 07:07:51;;;;;;;13.00;6.60;;;;;;;;;;5053573;28;21133;-56
2022/12/09 07:10:17;;;;;;;10.27;7.20;;;;;;;;;;5054049;28;20477;-56
2022/12/09 07:12:43;;;;;;;12.00;6.40;;;;;;;;;;5044701;28;20442;-57
2022/12/09 07:15:09;;;;;;;9.30;5.57;;;;;;;;;;5047858;28;20457;-57
2022/12/09 07:17:35;;;;;;;7.03;5.13;;;;;;;;;;5029631;28;20456;-57
2022/12/09 07:20:01;;;;;;;5.57;4.43;;;;;;;;;;5052720;28;20442;-57
2022/12/09 07:22:27;;;;;;;9.80;6.17;;;;;;;;;;5047684;28;20741;-56
2022/12/09 07:24:53;;;;;;;10.50;6.10;;;;;;;;;;5056797;28;21655;-56
2022/12/09 07:27:19;;;;;;;7.93;6.03;;;;;;;;;;5026645;28;20448;-58
2022/12/09 07:29:45;;;;;;;10.37;6.20;;;;;;;;;;5048521;28;20508;-56
2022/12/09 07:32:14;;;;;;;9.70;5.93;;;;;;;;;;5021251;28;22063;-58
2022/12/09 07:34:41;;;;;;;11.80;7.43;;;;;;;;;;5054673;28;20445;-56
2022/12/09 07:37:07;;;;;;;8.13;5.83;;;;;;;;;;5041100;28;20461;-57
2022/12/09 07:39:33;;;;;;;9.77;5.70;;;;;;;;;;5053061;28;20492;-57
2022/12/09 07:41:59;;;;;;;7.70;5.27;;;;;;;;;;5052301;28;20513;-60
2022/12/09 07:44:28;;;;;;;7.10;6.23;;;;;;;;;;5050202;28;20465;-56
2022/12/09 07:46:54;;;;;;;6.87;5.13;;;;;;;;;;5047264;28;20433;-56
2022/12/09 07:49:20;;;;;;;8.00;5.77;;;;;;;;;;5045332;28;20459;-55
2022/12/09 07:51:46;;;;;;;10.00;6.13;;;;;;;;;;5051662;28;20425;-56
2022/12/09 07:54:13;;;;;;;6.93;5.20;;;;;;;;;;5053978;28;20467;-57
2022/12/09 07:56:39;;;;;;;9.00;7.00;;;;;;;;;;5056118;28;20503;-62
2022/12/09 07:59:06;;;;;;;7.47;6.20;;;;;;;;;;5033907;28;20589;-57
2022/12/09 08:01:32;;;;;;;10.53;6.87;;;;;;;;;;5057987;28;20550;-56
2022/12/09 08:03:58;;;;;;;6.30;5.43;;;;;;;;;;5053840;28;21757;-56
2022/12/09 08:06:24;;;;;;;9.10;5.40;;;;;;;;;;5052600;28;20510;-56
2022/12/09 08:08:50;;;;;;;8.60;5.97;;;;;;;;;;5013434;28;20452;-60
2022/12/09 08:11:23;;;;;;;7.13;5.60;;;;;;;;;;5060009;28;20418;-58
2022/12/09 08:13:49;;;;;;;11.83;7.77;;;;;;;;;;5025702;28;20496;-56
2022/12/09 08:16:16;;;;;;;11.13;5.23;;;;;;;;;;5048650;28;20433;-56
2022/12/09 08:18:42;;;;;;;8.70;5.13;;;;;;;;;;5031459;28;20487;-57
2022/12/09 08:21:09;;;;;;;11.90;7.50;;;;;;;;;;5051874;28;20429;-60
2022/12/09 08:23:35;;;;;;;13.47;5.60;;;;;;;;;;5036821;28;20543;-57
2022/12/09 08:26:01;;;;;;;7.03;5.53;;;;;;;;;;5072076;28;20483;-56
2022/12/09 08:28:27;;;;;;;8.67;6.57;;;;;;;;;;5033407;28;20449;-56
2022/12/09 08:30:53;;;;;;;11.70;6.63;;;;;;;;;;5047507;28;20468;-56
2022/12/09 08:33:19;;;;;;;9.30;6.23;;;;;;;;;;5022850;28;20456;-56
2022/12/09 08:35:45;;;;;;;8.93;5.27;;;;;;;;;;5042420;28;20472;-55
2022/12/09 08:38:11;;;;;;;9.30;7.23;;;;;;;;;;5054042;28;20557;-56
2022/12/09 08:40:37;;;;;;;10.90;5.60;;;;;;;;;;5059872;28;20468;-56
2022/12/09 08:43:04;;;;;;;11.47;6.77;;;;;;;;;;4993932;28;21262;-56
2022/12/09 08:45:32;;;;;;;9.50;6.10;;;;;;;;;;5034836;28;20451;-56
2022/12/09 08:47:58;;;;;;;11.50;6.23;;;;;;;;;;5052994;28;20748;-55
2022/12/09 08:50:24;;;;;;;7.03;6.33;;;;;;;;;;5046699;28;20433;-55
2022/12/09 08:52:50;;;;;;;10.33;6.80;;;;;;;;;;5038109;28;21236;-56
2022/12/09 08:55:16;;;;;;;8.40;7.07;;;;;;;;;;5054436;28;20520;-56
2022/12/09 08:57:42;;;;;;;14.23;6.73;;;;;;;;;;5045720;28;20720;-55
2022/12/09 09:00:09;;;;;;;11.07;6.80;;;;;;;;;;5054260;28;20512;-57
2022/12/09 09:02:35;;;;;;;11.80;7.23;;;;;;;;;;5045737;28;20705;-56
2022/12/09 09:05:01;;;;;;;11.00;7.20;;;;;;;;;;5036819;28;20463;-55
2022/12/09 09:07:27;;;;;;;8.23;6.50;;;;;;;;;;5059963;28;20468;-61
2022/12/09 09:09:52;;;;;;;11.10;7.40;;;;;;;;;;5053582;28;20945;-56
2022/12/09 09:12:25;;;;;;;11.70;7.20;;;;;;;;;;5050799;28;20427;-57
2022/12/09 09:14:53;;;;;;;11.80;6.87;;;;;;;;;;5029877;28;20653;-60
2022/12/09 09:17:19;;;;;;;8.70;6.47;;;;;;;;;;5055973;28;20532;-56
2022/12/09 09:19:45;;;;;;;9.20;6.77;;;;;;;;;;5033996;28;20485;-55
2022/12/09 09:22:11;;;;;;;10.03;7.70;;;;;;;;;;5031230;28;20537;-56
2022/12/09 09:24:37;;;;;;;9.20;5.97;;;;;;;;;;5056846;28;20434;-60
2022/12/09 09:27:03;;;;;;;9.60;7.20;;;;;;;;;;5034954;28;20418;-56
2022/12/09 09:29:29;;;;;;;8.60;6.80;;;;;;;;;;5062330;28;20942;-56
2022/12/09 09:31:55;;;;;;;13.83;6.10;;;;;;;;;;5037587;28;20545;-57
2022/12/09 09:34:21;;;;;;;7.70;6.43;;;;;;;;;;5062422;28;20441;-59
2022/12/09 09:36:47;;;;;;;9.90;7.13;;;;;;;;;;5014192;28;21594;-56
2022/12/09 09:39:13;;;;;;;7.97;6.20;;;;;;;;;;5033668;28;20498;-59
2022/12/09 09:41:45;;;;;;;10.17;7.17;;;;;;;;;;5057830;28;21008;-54
2022/12/09 09:44:27;;;;;;;12.13;6.70;;;;;;;;;;5055441;28;20524;-56
2022/12/09 09:46:59;;;;;;;14.70;7.77;;;;;;;;;;5049128;28;20978;-57
2022/12/09 09:49:31;;;;;;;11.07;7.60;;;;;;;;;;5019856;28;20894;-55
2022/12/09 09:51:57;;;;;;;11.60;7.70;;;;;;;;;;5057815;28;20757;-55
2022/12/09 09:54:23;;;;;;;16.87;9.37;;;;;;;;;;5057286;28;20448;-55
2022/12/09 09:56:52;;;;;;;14.07;8.57;;;;;;;;;;5054186;28;20426;-55
2022/12/09 09:59:38;;;;;;;15.20;8.43;;;;;;;;;;5036505;28;20503;-56
2022/12/09 10:02:11;;;;;;;12.20;8.07;;;;;;;;;;5063317;28;20473;-55
2022/12/09 10:04:55;;;;;;;10.23;7.10;;;;;;;;;;5029959;28;20444;-55
2022/12/09 10:07:33;;;;;;;13.30;8.30;;;;;;;;;;5037711;28;20555;-55
2022/12/09 10:10:10;;;;;;;14.87;9.17;;;;;;;;;;5050141;28;20548;-57
2022/12/09 10:12:43;;;;;;;11.00;7.83;;;;;;;;;;5052207;28;20433;-57
2022/12/09 10:15:16;;;;;;;13.10;8.07;;;;;;;;;;5068788;28;20434;-57
2022/12/09 10:17:48;;;;;;;9.53;7.93;;;;;;;;;;5014818;28;20555;-58
2022/12/09 10:20:16;;;;;;;12.93;7.97;;;;;;;;;;5039403;28;20452;-54
2022/12/09 10:22:42;;;;;;;11.77;7.63;;;;;;;;;;5042822;28;20509;-55
2022/12/09 10:25:15;;;;;;;8.97;8.07;;;;;;;;;;5056243;28;20905;-58
2022/12/09 10:27:44;;;;;;;12.37;8.23;;;;;;;;;;5026083;28;20514;-56
2022/12/09 10:30:11;;;;;;;12.43;7.70;;;;;;;;;;5058104;28;20445;-56
2022/12/09 10:32:37;;;;;;;8.97;7.73;;;;;;;;;;5054368;28;20472;-58
2022/12/09 10:35:19;;;;;;;13.30;9.40;;;;;;;;;;5045536;28;20433;-57
2022/12/09 10:37:46;;;;;;;11.97;8.00;;;;;;;;;;5029134;28;20517;-56
2022/12/09 10:40:12;;;;;;;11.17;8.40;;;;;;;;;;5061599;28;20430;-58
2022/12/09 10:45:25;;;;;;;14.10;8.90;;;;;;;;;;5058623;28;20432;-57
2022/12/09 10:47:51;;;;;;;12.53;7.90;;;;;;;;;;5034493;28;20442;-57
2022/12/09 10:50:24;;;;;;;8.80;7.20;;;;;;;;;;5046584;28;20533;-56
2022/12/09 10:52:50;;;;;;;14.23;8.90;;;;;;;;;;5011239;28;21268;-54
2022/12/09 10:55:34;;;;;;;9.77;7.33;;;;;;;;;;5054480;28;20430;-58
2022/12/09 10:58:10;;;;;;;22.60;9.37;;;;;;;;;;5048694;28;20469;-57
2022/12/09 11:00:37;;;;;;;13.07;7.77;;;;;;;;;;5050751;28;21956;-56
2022/12/09 11:03:03;;;;;;;21.70;8.03;;;;;;;;;;5035674;28;20426;-58
2022/12/09 11:05:29;;;;;;;15.70;8.20;;;;;;;;;;5046466;28;21277;-59
2022/12/09 11:07:55;;;;;;;10.60;7.47;;;;;;;;;;5046017;28;20450;-62
2022/12/09 11:10:23;;;;;;;18.53;8.67;;;;;;;;;;5057387;28;20458;-58
2022/12/09 11:12:50;;;;;;;8.90;7.80;;;;;;;;;;5030180;28;20437;-55
2022/12/09 11:15:37;;;;;;;10.67;8.23;;;;;;;;;;5056810;28;20446;-56
2022/12/09 11:18:07;;;;;;;12.03;9.13;;;;;;;;;;5069608;28;20473;-56
2022/12/09 11:20:34;;;;;;;15.77;9.57;;;;;;;;;;5050781;28;20449;-56
2022/12/09 11:23:03;;;;;;;13.37;8.63;;;;;;;;;;5010265;28;20453;-56
2022/12/09 11:25:30;;;;;;;16.20;9.70;;;;;;;;;;5061650;28;20875;-56
2022/12/09 11:28:00;;;;;;;15.40;8.60;;;;;;;;;;5033694;28;20867;-55
2022/12/09 11:30:27;;;;;;;12.47;8.40;;;;;;;;;;5059295;28;20594;-55
2022/12/09 11:32:52;;;;;;;18.77;8.13;;;;;;;;;;5046000;28;20461;-56
2022/12/09 11:35:25;;;;;;;11.13;9.50;;;;;;;;;;5050363;28;20458;-56
2022/12/09 11:37:51;;;;;;;15.47;9.30;;;;;;;;;;5029511;28;21048;-55
2022/12/09 11:40:18;;;;;;;14.40;9.63;;;;;;;;;;5028133;28;20445;-56
2022/12/09 11:42:48;;;;;;;15.33;9.83;;;;;;;;;;5054398;28;20540;-56
2022/12/09 11:45:17;;;;;;;22.80;9.57;;;;;;;;;;5023375;28;20541;-57
2022/12/09 11:47:45;;;;;;;32.70;9.53;;;;;;;;;;5048763;28;20525;-57
2022/12/09 11:50:21;;;;;;;13.13;9.33;;;;;;;;;;5043160;28;20959;-58
2022/12/09 11:53:04;;;;;;;11.70;8.53;;;;;;;;;;5056756;28;20441;-56
2022/12/09 11:55:30;;;;;;;16.50;10.27;;;;;;;;;;5009788;28;20526;-57
2022/12/09 11:57:58;;;;;;;26.63;10.00;;;;;;;;;;5076692;28;20478;-56
2022/12/09 12:00:28;;;;;;;12.53;10.03;;;;;;;;;;5055488;28;20472;-57
2022/12/09 12:03:03;;;;;;;14.57;10.90;;;;;;;;;;5076115;28;20944;-59
2022/12/09 12:05:32;;;;;;;12.13;9.27;;;;;;;;;;5030787;28;20469;-57
2022/12/09 12:07:58;;;;;;;16.93;9.40;;;;;;;;;;5061356;28;20432;-57
2022/12/09 12:10:26;;;;;;;14.30;9.50;;;;;;;;;;5035554;28;20433;-55
2022/12/09 12:13:10;;;;;;;16.13;8.83;;;;;;;;;;5027612;28;21438;-56
2022/12/09 12:16:12;;;;;;;16.40;10.80;;;;;;;;;;5057223;28;20559;-56
2022/12/09 12:18:46;;;;;;;14.87;9.33;;;;;;;;;;4968083;28;20518;-57
2022/12/09 12:21:15;;;;;;;16.10;10.50;;;;;;;;;;5024286;28;21368;-64
2022/12/09 12:23:57;;;;;;;16.10;10.70;;;;;;;;;;5034536;28;20450;-55
2022/12/09 12:26:27;;;;;;;14.13;9.73;;;;;;;;;;5055795;28;20429;-57
2022/12/09 12:28:56;;;;;;;14.67;9.50;;;;;;;;;;5029807;28;20444;-60
2022/12/09 12:31:28;;;;;;;13.30;9.23;;;;;;;;;;5056003;28;20429;-57
2022/12/09 12:34:11;;;;;;;16.50;9.73;;;;;;;;;;5049084;28;20433;-54
2022/12/09 12:36:55;;;;;;;14.10;8.77;;;;;;;;;;5045502;28;20448;-55
2022/12/09 12:39:40;;;;;;;10.83;7.70;;;;;;;;;;5039412;28;20476;-56
2022/12/09 12:42:30;;;;;;;12.10;9.37;;;;;;;;;;5056533;28;20455;-56
2022/12/09 12:47:59;;;;;;;14.83;9.10;;;;;;;;;;5027861;28;20775;-56
2022/12/09 12:50:44;;;;;;;13.43;9.60;;;;;;;;;;5062907;28;20479;-58
2022/12/09 12:53:28;;;;;;;19.63;10.70;;;;;;;;;;5024400;28;20453;-56
2022/12/09 12:56:02;;;;;;;18.83;10.67;;;;;;;;;;5051676;28;20584;-58
2022/12/09 12:58:47;;;;;;;17.23;11.70;;;;;;;;;;5036904;28;20510;-58
2022/12/09 13:01:13;;;;;;;21.57;10.53;;;;;;;;;;5012350;28;20957;-59
2022/12/09 13:03:39;;;;;;;11.63;9.57;;;;;;;;;;5055297;28;20433;-56
2022/12/09 13:06:05;;;;;;;14.67;9.50;;;;;;;;;;5020033;28;20463;-57
2022/12/09 13:08:40;;;;;;;15.37;9.67;;;;;;;;;;5053901;28;20464;-58
2022/12/09 13:11:18;;;;;;;11.70;9.20;;;;;;;;;;5041728;28;22078;-55
2022/12/09 13:13:49;;;;;;;18.00;11.83;;;;;;;;;;5055360;28;20592;-56
2022/12/09 13:16:17;;;;;;;12.67;8.97;;;;;;;;;;5021316;28;21150;-56
2022/12/09 13:18:43;;;;;;;15.33;10.60;;;;;;;;;;5058343;28;20504;-57
2022/12/09 13:21:09;;;;;;;17.63;11.50;;;;;;;;;;5027832;28;20438;-56
2022/12/09 13:24:08;;;;;;;14.43;9.27;;;;;;;;;;5050615;28;20818;-62
2022/12/09 13:26:53;;;;;;;12.93;9.73;;;;;;;;;;5016007;28;20505;-58
2022/12/09 13:29:36;;;;;;;12.03;8.97;;;;;;;;;;5045463;28;21082;-57
2022/12/09 13:32:21;;;;;;;15.93;9.80;;;;;;;;;;5052252;28;20434;-56
2022/12/09 13:34:53;;;;;;;14.00;10.27;;;;;;;;;;5012701;28;20667;-55
2022/12/09 13:37:30;;;;;;;24.57;10.23;;;;;;;;;;5025230;28;20461;-57
2022/12/09 13:39:59;;;;;;;14.30;10.57;;;;;;;;;;5055568;28;20540;-57
2022/12/09 13:45:13;;;;;;;17.77;11.27;;;;;;;;;;5039652;28;20538;-57
2022/12/09 13:47:39;;;;;;;13.80;9.80;;;;;;;;;;5050475;28;21138;-56
2022/12/09 13:50:06;;;;;;;14.60;10.50;;;;;;;;;;5055122;28;20437;-56
2022/12/09 13:52:39;;;;;;;13.53;9.80;;;;;;;;;;5047783;28;21037;-55
2022/12/09 13:55:16;;;;;;;15.23;10.33;;;;;;;;;;5035425;28;21706;-60
2022/12/09 13:57:44;;;;;;;15.10;11.60;;;;;;;;;;5044424;28;20487;-55
2022/12/09 14:00:14;;;;;;;16.63;11.37;;;;;;;;;;5040201;28;20438;-56
2022/12/09 14:02:42;;;;;;;17.67;11.73;;;;;;;;;;5041461;28;20437;-56
2022/12/09 14:05:21;;;;;;;17.57;11.60;;;;;;;;;;5033570;28;21419;-57
2022/12/09 14:07:51;;;;;;;16.30;11.00;;;;;;;;;;5031279;28;20438;-56
2022/12/09 14:10:36;;;;;;;15.47;12.40;;;;;;;;;;5058211;28;20485;-56
2022/12/09 14:13:21;;;;;;;20.63;11.00;;;;;;;;;;5031672;28;20443;-56
2022/12/09 14:15:47;;;;;;;22.30;10.67;;;;;;;;;;5065912;28;20499;-63
2022/12/09 14:18:30;;;;;;;16.73;11.53;;;;;;;;;;5053396;28;21192;-55
2022/12/09 14:21:15;;;;;;;14.27;11.03;;;;;;;;;;5013214;28;20515;-56
2022/12/09 14:23:40;;;;;;;18.00;12.20;;;;;;;;;;5035016;28;20434;-57
2022/12/09 14:26:07;;;;;;;14.03;11.73;;;;;;;;;;5035100;28;20456;-57
2022/12/09 14:28:33;;;;;;;19.47;11.77;;;;;;;;;;5053539;28;20441;-61
2022/12/09 14:30:59;;;;;;;20.13;13.93;;;;;;;;;;5008275;28;20449;-57
2022/12/09 14:33:32;;;;;;;18.47;11.03;;;;;;;;;;5038523;28;20525;-58
2022/12/09 14:36:09;;;;;;;21.40;12.53;;;;;;;;;;5036680;28;21082;-57
2022/12/09 14:38:35;;;;;;;18.67;12.70;;;;;;;;;;5042187;28;20513;-59
2022/12/09 14:41:16;;;;;;;16.50;11.30;;;;;;;;;;5044863;28;20472;-59
2022/12/09 14:43:42;;;;;;;21.37;11.20;;;;;;;;;;5047246;28;20446;-57
2022/12/09 14:46:19;;;;;;;25.97;14.20;;;;;;;;;;5030033;28;20464;-59
2022/12/09 14:48:46;;;;;;;20.30;11.90;;;;;;;;;;5052506;28;20442;-58
2022/12/09 14:51:22;;;;;;;23.33;13.50;;;;;;;;;;5035132;28;21464;-58
2022/12/09 14:53:49;;;;;;;23.27;13.27;;;;;;;;;;5050811;28;20491;-58